Time;durP1;ratioP1;P1;durP2;ratioP2;P2;SDS_P1;SDS_P2;PMS_P1;PMS_P2;Temp;Humidity;BMP_temperature;BMP_pressure;BME280_temperature;BME280_humidity;BME280_pressure;Samples;Min_cycle;Max_cycle;Signal;HPM_P1;HPM_P2
2023/10/25 00:01:51;;;;;;;19.57;16.57;;;11.70;99.90;;;;;;5010771;28;20452;-56
2023/10/25 00:04:18;;;;;;;18.50;15.87;;;11.70;99.90;;;;;;5011437;28;20514;-57
2023/10/25 00:06:46;;;;;;;20.83;15.83;;;11.70;99.90;;;;;;5012384;28;20472;-56
2023/10/25 00:09:13;;;;;;;25.27;16.07;;;11.70;99.90;;;;;;5012060;28;20479;-56
2023/10/25 00:11:39;;;;;;;22.80;15.87;;;11.70;99.90;;;;;;5022718;28;20459;-55
2023/10/25 00:14:08;;;;;;;19.60;14.67;;;11.60;99.90;;;;;;5014257;28;20446;-56
2023/10/25 00:16:34;;;;;;;17.50;15.17;;;11.60;99.90;;;;;;5012740;28;20487;-56
2023/10/25 00:19:01;;;;;;;19.00;14.70;;;11.60;99.90;;;;;;5011825;28;20515;-56
2023/10/25 00:21:27;;;;;;;16.47;14.17;;;11.70;99.90;;;;;;5012353;28;20969;-56
2023/10/25 00:23:55;;;;;;;15.93;13.80;;;11.60;99.90;;;;;;5012617;28;20957;-55
2023/10/25 00:26:22;;;;;;;21.50;13.30;;;11.60;99.90;;;;;;5014343;28;20876;-57
2023/10/25 00:28:48;;;;;;;17.90;13.90;;;11.60;99.90;;;;;;5015967;28;21064;-56
2023/10/25 00:31:15;;;;;;;16.20;13.93;;;11.60;99.90;;;;;;5012148;28;20479;-56
2023/10/25 00:33:42;;;;;;;21.43;14.37;;;11.60;99.90;;;;;;5011674;28;20507;-56
2023/10/25 00:36:08;;;;;;;15.43;13.77;;;11.60;99.90;;;;;;5011799;28;20526;-57
2023/10/25 00:38:35;;;;;;;19.43;13.37;;;11.60;99.90;;;;;;5022809;28;20435;-57
2023/10/25 00:41:03;;;;;;;18.70;12.70;;;11.60;99.90;;;;;;5016950;28;20535;-60
2023/10/25 00:43:30;;;;;;;12.83;11.57;;;11.60;99.90;;;;;;5019386;28;20830;-56
2023/10/25 00:46:08;;;;;;;12.17;10.87;;;11.60;99.90;;;;;;5018504;28;20440;-59
2023/10/25 00:48:36;;;;;;;11.73;10.03;;;11.60;99.90;;;;;;5010571;28;20554;-56
2023/10/25 00:51:03;;;;;;;12.07;10.80;;;11.60;99.90;;;;;;5011904;28;20444;-56
2023/10/25 00:53:32;;;;;;;15.73;11.43;;;11.60;99.90;;;;;;5010578;28;20541;-56
2023/10/25 00:56:01;;;;;;;12.40;10.70;;;11.60;99.90;;;;;;5020554;28;20514;-57
2023/10/25 00:58:30;;;;;;;13.07;10.93;;;11.60;99.90;;;;;;5012570;28;20451;-56
2023/10/25 01:00:58;;;;;;;12.30;10.83;;;11.60;99.90;;;;;;5007491;28;20471;-56
2023/10/25 01:03:25;;;;;;;11.47;10.00;;;11.60;99.90;;;;;;5011501;28;20471;-57
2023/10/25 01:05:52;;;;;;;11.63;10.43;;;11.60;99.90;;;;;;5012735;28;20836;-56
2023/10/25 01:08:19;;;;;;;10.93;9.83;;;11.60;99.90;;;;;;5011826;28;20447;-58
2023/10/25 01:10:47;;;;;;;12.03;10.83;;;11.60;99.90;;;;;;5011387;28;20478;-58
2023/10/25 01:13:14;;;;;;;13.63;10.30;;;11.60;99.90;;;;;;5012031;28;20494;-57
2023/10/25 01:15:42;;;;;;;11.70;10.50;;;11.50;99.90;;;;;;5005368;28;20475;-58
2023/10/25 01:18:09;;;;;;;15.33;10.37;;;11.60;99.90;;;;;;5005333;28;20463;-59
2023/10/25 01:20:36;;;;;;;11.10;10.10;;;11.60;99.90;;;;;;5011925;28;20468;-59
2023/10/25 01:23:04;;;;;;;14.90;11.07;;;11.60;99.90;;;;;;5011447;28;20448;-56
2023/10/25 01:25:30;;;;;;;13.00;11.20;;;11.60;99.90;;;;;;5011554;28;20894;-58
2023/10/25 01:27:58;;;;;;;12.00;10.80;;;11.50;99.90;;;;;;5011685;28;20479;-58
2023/10/25 01:30:24;;;;;;;12.23;11.00;;;11.60;99.90;;;;;;5008785;28;20542;-59
2023/10/25 01:32:51;;;;;;;13.40;10.80;;;11.50;99.90;;;;;;5011010;28;20463;-58
2023/10/25 01:35:18;;;;;;;11.97;10.77;;;11.50;99.90;;;;;;5007242;28;20475;-58
2023/10/25 01:37:44;;;;;;;11.93;10.53;;;11.50;99.90;;;;;;5017374;28;20490;-57
2023/10/25 01:40:13;;;;;;;14.43;10.87;;;11.60;99.90;;;;;;5017109;28;21000;-59
2023/10/25 01:42:39;;;;;;;15.03;12.10;;;11.60;99.90;;;;;;5014522;28;20561;-58
2023/10/25 01:45:07;;;;;;;12.50;11.20;;;11.60;99.90;;;;;;5014617;28;20495;-58
2023/10/25 01:47:33;;;;;;;16.70;12.37;;;11.60;99.90;;;;;;5018266;28;20499;-58
2023/10/25 01:50:00;;;;;;;14.63;12.50;;;11.50;99.90;;;;;;5012855;28;21003;-58
2023/10/25 01:52:27;;;;;;;16.47;12.60;;;11.50;99.90;;;;;;5012943;28;20505;-57
2023/10/25 01:54:53;;;;;;;14.63;13.10;;;11.50;99.90;;;;;;5012695;28;20464;-58
2023/10/25 01:57:21;;;;;;;17.13;12.80;;;11.50;99.90;;;;;;5023246;28;20816;-59
2023/10/25 01:59:48;;;;;;;15.33;13.83;;;11.50;99.90;;;;;;5014891;28;20476;-57
2023/10/25 02:02:14;;;;;;;16.03;12.07;;;11.50;99.90;;;;;;5013325;28;20495;-57
2023/10/25 02:04:41;;;;;;;25.33;16.10;;;11.50;99.90;;;;;;5007504;28;20815;-58
2023/10/25 02:07:08;;;;;;;16.37;14.40;;;11.50;99.90;;;;;;5012626;28;20436;-58
2023/10/25 02:09:34;;;;;;;20.87;15.80;;;11.50;99.90;;;;;;5013358;28;20479;-57
2023/10/25 02:12:01;;;;;;;21.63;15.27;;;11.40;99.90;;;;;;5022831;28;20502;-57
2023/10/25 02:14:29;;;;;;;18.90;15.50;;;11.40;99.90;;;;;;5013917;28;20467;-59
2023/10/25 02:16:55;;;;;;;30.20;16.27;;;11.40;99.90;;;;;;5018404;28;20540;-58
2023/10/25 02:19:22;;;;;;;21.10;14.83;;;11.40;99.90;;;;;;5022844;28;20537;-58
2023/10/25 02:21:49;;;;;;;20.53;16.23;;;11.40;99.90;;;;;;5004819;28;20467;-59
2023/10/25 02:24:15;;;;;;;21.00;16.70;;;11.40;99.90;;;;;;5014508;28;20490;-58
2023/10/25 02:26:42;;;;;;;19.70;13.60;;;11.40;99.90;;;;;;5015069;28;20450;-57
2023/10/25 02:29:09;;;;;;;17.50;14.17;;;11.30;99.90;;;;;;5014145;28;20811;-57
2023/10/25 02:31:37;;;;;;;15.00;13.07;;;11.40;99.90;;;;;;5014533;28;20447;-57
2023/10/25 02:34:04;;;;;;;19.50;13.60;;;11.30;99.90;;;;;;5010750;28;20459;-57
2023/10/25 02:36:31;;;;;;;20.20;14.23;;;11.30;99.90;;;;;;5016760;28;20479;-58
2023/10/25 02:38:58;;;;;;;19.70;13.90;;;11.30;99.90;;;;;;5021696;28;20465;-59
2023/10/25 02:41:25;;;;;;;17.90;15.10;;;11.30;99.90;;;;;;5031680;28;20451;-59
2023/10/25 02:43:53;;;;;;;18.57;14.17;;;11.30;99.90;;;;;;5010429;28;20931;-58
2023/10/25 02:46:20;;;;;;;23.00;13.80;;;11.30;99.90;;;;;;5013535;28;20442;-58
2023/10/25 02:48:50;;;;;;;24.13;13.60;;;11.30;99.90;;;;;;5013426;28;20444;-57
2023/10/25 02:51:16;;;;;;;15.40;12.67;;;11.30;99.90;;;;;;5013616;28;20444;-56
2023/10/25 02:53:43;;;;;;;18.27;12.63;;;11.30;99.90;;;;;;5012373;28;20467;-54
2023/10/25 02:56:09;;;;;;;11.47;10.20;;;11.20;99.90;;;;;;5013816;28;20483;-55
2023/10/25 02:58:36;;;;;;;13.23;11.67;;;11.30;99.90;;;;;;5013250;28;20522;-55
2023/10/25 03:01:03;;;;;;;14.97;11.60;;;11.20;99.90;;;;;;5014763;28;20460;-56
2023/10/25 03:03:31;;;;;;;12.57;11.27;;;11.20;99.90;;;;;;5013859;28;20571;-57
2023/10/25 03:05:59;;;;;;;12.57;11.27;;;11.20;99.90;;;;;;5013132;28;20463;-56
2023/10/25 03:08:27;;;;;;;19.87;12.80;;;11.20;99.90;;;;;;5012375;28;20444;-56
2023/10/25 03:10:54;;;;;;;13.57;12.17;;;11.20;99.90;;;;;;5028647;28;20513;-56
2023/10/25 03:13:21;;;;;;;12.93;11.63;;;11.20;99.90;;;;;;5014561;28;20918;-56
2023/10/25 03:15:47;;;;;;;18.47;12.07;;;11.20;99.90;;;;;;5012723;28;20537;-56
2023/10/25 03:18:14;;;;;;;15.63;12.50;;;11.20;99.90;;;;;;5012747;28;20481;-56
2023/10/25 03:20:41;;;;;;;13.87;12.47;;;11.20;99.90;;;;;;5013666;28;20533;-56
2023/10/25 03:23:09;;;;;;;15.83;14.03;;;11.10;99.90;;;;;;5013567;28;20447;-56
2023/10/25 03:25:35;;;;;;;21.73;14.07;;;11.10;99.90;;;;;;5016784;28;20513;-59
2023/10/25 03:28:02;;;;;;;16.93;12.50;;;11.10;99.90;;;;;;5025881;28;20440;-55
2023/10/25 03:30:29;;;;;;;18.13;12.70;;;11.10;99.90;;;;;;5012133;28;20526;-55
2023/10/25 03:32:55;;;;;;;20.73;14.07;;;11.00;99.90;;;;;;5012835;28;20521;-55
2023/10/25 03:35:22;;;;;;;13.27;11.90;;;11.00;99.90;;;;;;5012985;28;20933;-56
2023/10/25 03:37:48;;;;;;;13.37;12.10;;;11.00;99.90;;;;;;5017038;28;20467;-56
2023/10/25 03:40:16;;;;;;;14.10;12.80;;;11.00;99.90;;;;;;5014204;28;20874;-56
2023/10/25 03:42:43;;;;;;;14.47;11.90;;;11.00;99.90;;;;;;5013582;28;20447;-56
2023/10/25 03:45:10;;;;;;;14.20;12.40;;;11.00;99.90;;;;;;5013196;28;20436;-56
2023/10/25 03:47:37;;;;;;;16.70;12.87;;;11.00;99.90;;;;;;5006528;28;20456;-55
2023/10/25 03:50:04;;;;;;;14.60;12.70;;;11.00;99.90;;;;;;5009293;28;20542;-56
2023/10/25 03:52:31;;;;;;;18.43;11.53;;;11.00;99.90;;;;;;5011088;28;20471;-55
2023/10/25 03:54:57;;;;;;;16.70;12.20;;;11.00;99.90;;;;;;5021081;28;20872;-56
2023/10/25 03:57:26;;;;;;;17.93;11.93;;;11.00;99.90;;;;;;5032022;28;20479;-56
2023/10/25 03:59:53;;;;;;;14.90;13.17;;;11.00;99.90;;;;;;5033152;28;20510;-56
2023/10/25 04:02:20;;;;;;;13.20;11.80;;;11.00;99.90;;;;;;5012069;28;20494;-56
2023/10/25 04:04:46;;;;;;;14.33;12.60;;;11.00;99.90;;;;;;5011758;28;20467;-57
2023/10/25 04:07:13;;;;;;;14.70;13.20;;;11.00;99.90;;;;;;5012639;28;20443;-56
2023/10/25 04:09:40;;;;;;;15.27;12.90;;;11.00;99.90;;;;;;5019119;28;20581;-56
2023/10/25 04:12:11;;;;;;;14.53;13.20;;;11.00;99.90;;;;;;5029364;28;20447;-56
2023/10/25 04:14:42;;;;;;;15.47;13.03;;;11.00;99.90;;;;;;5026266;28;20463;-56
2023/10/25 04:17:09;;;;;;;15.93;13.20;;;11.00;99.90;;;;;;5012395;28;20479;-57
2023/10/25 04:19:36;;;;;;;14.13;12.60;;;11.00;99.90;;;;;;5011530;28;20538;-56
2023/10/25 04:22:02;;;;;;;15.53;13.93;;;10.90;99.90;;;;;;5012564;28;20444;-56
2023/10/25 04:24:29;;;;;;;14.57;13.17;;;10.90;99.90;;;;;;5016412;28;20811;-57
2023/10/25 04:26:56;;;;;;;22.83;15.13;;;10.90;99.90;;;;;;5007361;28;20539;-56
2023/10/25 04:29:22;;;;;;;14.63;13.23;;;10.90;99.90;;;;;;5007753;28;20480;-56
2023/10/25 04:31:50;;;;;;;19.63;13.87;;;10.90;99.90;;;;;;5025851;28;20443;-54
2023/10/25 04:34:17;;;;;;;16.90;13.40;;;10.90;99.90;;;;;;5031726;28;20447;-56
2023/10/25 04:36:43;;;;;;;15.40;13.90;;;10.80;99.90;;;;;;5015043;28;20495;-57
2023/10/25 04:39:10;;;;;;;20.70;13.50;;;10.80;99.90;;;;;;5012606;28;20517;-57
2023/10/25 04:41:36;;;;;;;15.23;13.73;;;10.70;99.90;;;;;;5011167;28;20517;-57
2023/10/25 04:44:03;;;;;;;15.60;13.90;;;10.70;99.90;;;;;;5008886;28;20487;-56
2023/10/25 04:46:30;;;;;;;15.20;13.00;;;10.60;99.90;;;;;;5011491;28;20440;-56
2023/10/25 04:48:58;;;;;;;15.73;12.90;;;10.60;99.90;;;;;;5012203;28;20517;-56
2023/10/25 04:51:24;;;;;;;13.73;12.33;;;10.50;99.90;;;;;;5012065;28;20498;-55
2023/10/25 04:53:51;;;;;;;14.77;13.37;;;10.40;99.90;;;;;;5016564;28;20462;-56
2023/10/25 04:56:22;;;;;;;18.90;13.20;;;10.40;99.90;;;;;;5011348;28;20857;-55
2023/10/25 04:58:49;;;;;;;16.97;13.00;;;10.30;99.90;;;;;;5009654;28;21061;-57
2023/10/25 05:01:16;;;;;;;14.23;12.77;;;10.30;99.90;;;;;;5011568;28;20448;-56
2023/10/25 05:03:44;;;;;;;13.33;12.13;;;10.30;99.90;;;;;;5012111;28;20447;-57
2023/10/25 05:06:12;;;;;;;15.00;11.60;;;10.20;99.90;;;;;;5011903;28;20469;-56
2023/10/25 05:08:39;;;;;;;12.87;11.47;;;10.20;99.90;;;;;;5011025;28;20525;-57
2023/10/25 05:11:07;;;;;;;12.83;11.73;;;10.10;99.90;;;;;;5009794;28;20827;-55
2023/10/25 05:13:34;;;;;;;14.30;12.90;;;10.00;99.90;;;;;;5009905;28;20461;-56
2023/10/25 05:16:01;;;;;;;14.97;13.37;;;10.00;99.90;;;;;;5009323;28;20471;-56
2023/10/25 05:18:29;;;;;;;13.60;12.20;;;10.00;99.90;;;;;;4992639;28;20444;-56
2023/10/25 05:20:58;;;;;;;13.53;12.23;;;9.90;99.90;;;;;;5000392;28;20463;-56
2023/10/25 05:23:30;;;;;;;14.10;12.43;;;9.90;99.90;;;;;;5010461;28;20522;-56
2023/10/25 05:25:58;;;;;;;18.20;12.83;;;9.90;99.90;;;;;;5011330;28;20498;-54
2023/10/25 05:28:25;;;;;;;12.73;11.53;;;9.80;99.90;;;;;;5011564;28;20735;-55
2023/10/25 05:30:55;;;;;;;14.03;11.80;;;9.70;99.90;;;;;;5010772;28;20522;-56
2023/10/25 05:33:24;;;;;;;14.00;12.60;;;9.70;99.90;;;;;;5000759;28;20480;-55
2023/10/25 05:35:51;;;;;;;30.63;13.10;;;9.70;99.90;;;;;;4991901;28;20856;-56
2023/10/25 05:38:18;;;;;;;13.73;12.53;;;9.70;99.90;;;;;;5008620;28;20480;-57
2023/10/25 05:40:48;;;;;;;14.47;12.20;;;9.60;99.90;;;;;;5018094;28;20488;-56
2023/10/25 05:43:16;;;;;;;13.23;11.93;;;9.60;99.90;;;;;;5011368;28;20922;-56
2023/10/25 05:45:43;;;;;;;14.23;12.73;;;9.60;99.90;;;;;;5009202;28;20530;-56
2023/10/25 05:48:11;;;;;;;13.30;11.93;;;9.60;99.90;;;;;;5011668;28;20458;-55
2023/10/25 05:50:38;;;;;;;15.37;12.70;;;9.50;99.90;;;;;;5011588;28;20542;-56
2023/10/25 05:53:05;;;;;;;14.70;13.37;;;9.50;99.90;;;;;;5010600;28;20838;-56
2023/10/25 05:55:32;;;;;;;16.13;13.27;;;9.50;99.90;;;;;;5009565;28;20444;-56
2023/10/25 05:58:01;;;;;;;15.07;13.47;;;9.50;99.90;;;;;;5019593;28;20511;-56
2023/10/25 06:00:28;;;;;;;23.10;13.43;;;9.50;99.90;;;;;;5023061;28;20545;-57
2023/10/25 06:02:56;;;;;;;14.17;12.63;;;9.50;99.90;;;;;;5022113;28;20512;-57
2023/10/25 06:05:24;;;;;;;13.70;12.40;;;9.50;99.90;;;;;;5016092;28;20443;-57
2023/10/25 06:07:51;;;;;;;14.30;12.80;;;9.50;99.90;;;;;;5010539;28;20467;-56
2023/10/25 06:10:19;;;;;;;14.07;12.57;;;9.50;99.90;;;;;;5011438;28;20459;-56
2023/10/25 06:12:46;;;;;;;22.50;13.80;;;9.50;99.90;;;;;;5013016;28;20475;-56
2023/10/25 06:15:14;;;;;;;14.73;12.97;;;9.40;99.90;;;;;;5017373;28;20459;-56
2023/10/25 06:17:41;;;;;;;14.47;13.00;;;9.40;99.90;;;;;;5006260;28;20539;-56
2023/10/25 06:20:10;;;;;;;16.23;13.13;;;9.40;99.90;;;;;;5008901;28;20541;-55
2023/10/25 06:22:36;;;;;;;15.20;13.50;;;9.40;99.90;;;;;;4992254;28;20463;-56
2023/10/25 06:25:04;;;;;;;15.60;13.93;;;9.40;99.90;;;;;;4992696;28;20869;-55
2023/10/25 06:27:31;;;;;;;20.97;13.50;;;9.40;99.90;;;;;;5016226;28;20455;-55
2023/10/25 06:29:58;;;;;;;15.73;13.80;;;9.30;99.90;;;;;;5025234;28;20479;-57
2023/10/25 06:32:26;;;;;;;21.03;14.70;;;9.40;99.90;;;;;;5014500;28;20987;-56
2023/10/25 06:34:53;;;;;;;17.90;13.30;;;9.40;99.90;;;;;;5013292;28;20859;-56
2023/10/25 06:37:20;;;;;;;16.03;14.33;;;9.40;99.90;;;;;;5011428;28;21098;-56
2023/10/25 06:39:48;;;;;;;14.40;12.90;;;9.40;99.90;;;;;;5019548;28;20466;-57
2023/10/25 06:42:15;;;;;;;18.63;14.50;;;9.40;99.90;;;;;;5034527;28;20438;-56
2023/10/25 06:44:43;;;;;;;15.73;13.93;;;9.40;99.90;;;;;;5024403;28;20464;-55
2023/10/25 06:47:10;;;;;;;21.93;15.13;;;9.50;99.90;;;;;;5006316;28;20447;-56
2023/10/25 06:49:39;;;;;;;17.37;15.10;;;9.40;99.90;;;;;;5015459;28;20478;-56
2023/10/25 06:52:06;;;;;;;19.63;14.97;;;9.40;99.90;;;;;;5017930;28;20443;-55
2023/10/25 06:54:34;;;;;;;17.43;15.43;;;9.50;99.90;;;;;;5014252;28;20447;-57
2023/10/25 06:57:01;;;;;;;30.13;13.67;;;9.50;99.90;;;;;;5013311;28;21023;-64
2023/10/25 06:59:28;;;;;;;26.43;14.30;;;9.50;99.90;;;;;;5013993;28;20479;-56
2023/10/25 07:02:15;;;;;;;16.00;14.30;;;9.50;99.90;;;;;;5012339;28;20459;-56
2023/10/25 07:04:47;;;;;;;17.43;15.63;;;9.60;99.90;;;;;;5009119;28;20466;-57
2023/10/25 07:07:15;;;;;;;15.90;14.30;;;9.60;99.90;;;;;;5014005;28;20460;-56
2023/10/25 07:09:42;;;;;;;23.03;15.27;;;9.60;99.90;;;;;;5017860;28;20466;-56
2023/10/25 07:12:09;;;;;;;18.87;16.57;;;9.70;99.90;;;;;;5033451;28;20450;-56
2023/10/25 07:14:35;;;;;;;24.00;17.40;;;9.70;99.90;;;;;;5013215;28;20452;-56
2023/10/25 07:17:02;;;;;;;18.33;16.33;;;9.70;99.90;;;;;;5013495;28;20524;-56
2023/10/25 07:19:29;;;;;;;25.50;16.40;;;9.70;99.90;;;;;;5013806;28;20533;-56
2023/10/25 07:21:57;;;;;;;20.77;17.30;;;9.80;99.90;;;;;;5026365;28;20475;-56
2023/10/25 07:24:24;;;;;;;19.10;17.10;;;9.80;99.90;;;;;;5025362;28;20460;-55
2023/10/25 07:26:51;;;;;;;20.83;17.70;;;9.80;99.90;;;;;;5014428;28;20510;-55
2023/10/25 07:29:17;;;;;;;29.20;18.57;;;9.80;99.90;;;;;;5013081;28;20519;-56
2023/10/25 07:31:44;;;;;;;28.70;18.43;;;9.80;99.90;;;;;;5013382;28;20471;-57
2023/10/25 07:34:11;;;;;;;28.73;19.80;;;9.80;99.90;;;;;;5017039;28;20460;-56
2023/10/25 07:36:37;;;;;;;21.83;19.53;;;9.90;99.90;;;;;;5018926;28;20505;-57
2023/10/25 07:39:05;;;;;;;25.63;20.20;;;9.90;99.90;;;;;;5012700;28;20918;-57
2023/10/25 07:41:32;;;;;;;27.03;21.23;;;9.90;99.90;;;;;;5032227;28;20944;-57
2023/10/25 07:44:00;;;;;;;22.37;19.40;;;9.90;99.90;;;;;;5021556;28;20471;-57
2023/10/25 07:46:27;;;;;;;26.00;21.33;;;9.90;99.90;;;;;;5012246;28;20464;-58
2023/10/25 07:48:54;;;;;;;29.80;19.80;;;10.00;99.90;;;;;;5013136;28;20456;-57
2023/10/25 07:51:20;;;;;;;25.70;21.67;;;10.00;99.90;;;;;;5013097;28;20455;-57
2023/10/25 07:53:47;;;;;;;25.77;20.37;;;10.00;99.90;;;;;;5016451;28;20466;-56
2023/10/25 07:56:16;;;;;;;26.53;21.40;;;10.00;99.90;;;;;;5024299;28;20703;-56
2023/10/25 07:58:43;;;;;;;37.70;24.87;;;10.00;99.90;;;;;;5014351;28;20483;-57
2023/10/25 08:01:10;;;;;;;27.77;23.90;;;10.00;99.90;;;;;;5008962;28;20887;-57
2023/10/25 08:03:37;;;;;;;29.17;24.60;;;10.00;99.90;;;;;;5008101;28;20493;-57
2023/10/25 08:06:05;;;;;;;29.13;22.17;;;10.00;99.90;;;;;;5032660;28;20513;-57
2023/10/25 08:08:32;;;;;;;28.53;21.43;;;10.00;99.90;;;;;;5020981;28;21525;-57
2023/10/25 08:11:02;;;;;;;32.83;26.83;;;10.00;99.90;;;;;;5016555;28;20950;-57
2023/10/25 08:13:30;;;;;;;26.37;23.00;;;10.00;99.90;;;;;;5012914;28;20446;-57
2023/10/25 08:15:57;;;;;;;33.50;24.93;;;10.10;99.90;;;;;;5012815;28;20942;-57
2023/10/25 08:18:24;;;;;;;26.70;20.80;;;10.10;99.90;;;;;;5011601;28;20479;-57
2023/10/25 08:20:50;;;;;;;29.20;22.80;;;10.10;99.90;;;;;;5012559;28;20474;-57
2023/10/25 08:23:17;;;;;;;24.97;22.40;;;10.10;99.90;;;;;;5011466;28;20534;-57
2023/10/25 08:25:43;;;;;;;23.73;20.57;;;10.10;99.90;;;;;;5028059;28;20439;-56
2023/10/25 08:28:10;;;;;;;24.47;20.57;;;10.20;99.90;;;;;;5011137;28;20456;-57
2023/10/25 08:30:38;;;;;;;27.13;21.63;;;10.20;99.90;;;;;;5012305;28;20906;-57
2023/10/25 08:33:05;;;;;;;25.10;21.20;;;10.30;99.90;;;;;;5012314;28;20965;-57
2023/10/25 08:35:31;;;;;;;29.77;22.90;;;10.30;99.90;;;;;;5011356;28;20460;-57
2023/10/25 08:37:58;;;;;;;23.90;21.30;;;10.30;99.90;;;;;;5009385;28;20894;-57
2023/10/25 08:40:25;;;;;;;26.60;23.07;;;10.30;99.90;;;;;;5012561;28;20551;-57
2023/10/25 08:42:52;;;;;;;27.17;23.37;;;10.40;99.90;;;;;;5012733;28;20443;-57
2023/10/25 08:45:19;;;;;;;28.67;22.73;;;10.40;99.90;;;;;;5013093;28;20455;-57
2023/10/25 08:47:47;;;;;;;28.83;22.13;;;10.40;99.90;;;;;;5010531;28;20973;-58
2023/10/25 08:50:19;;;;;;;28.07;24.90;;;10.30;99.90;;;;;;5012526;28;20533;-57
2023/10/25 08:52:48;;;;;;;27.90;24.40;;;10.30;99.90;;;;;;5012488;28;20448;-57
2023/10/25 08:55:17;;;;;;;29.80;24.63;;;10.20;99.90;;;;;;5009498;28;20887;-57
2023/10/25 08:57:44;;;;;;;31.60;24.83;;;10.30;99.90;;;;;;5031840;28;20474;-56
2023/10/25 09:00:13;;;;;;;27.33;24.37;;;10.30;99.90;;;;;;5031885;28;20536;-61
2023/10/25 09:02:40;;;;;;;27.50;23.97;;;10.40;99.90;;;;;;5031881;28;20530;-58
2023/10/25 09:05:09;;;;;;;26.60;23.70;;;10.50;99.90;;;;;;5015834;28;20471;-57
2023/10/25 09:07:37;;;;;;;26.63;23.17;;;10.50;99.90;;;;;;5011212;28;20499;-57
2023/10/25 09:10:05;;;;;;;29.33;23.33;;;10.50;99.90;;;;;;5009188;28;20886;-57
2023/10/25 09:12:32;;;;;;;26.10;21.37;;;10.60;99.90;;;;;;5013020;28;20444;-57
2023/10/25 09:14:59;;;;;;;25.77;20.87;;;10.50;99.90;;;;;;5011904;28;20455;-56
2023/10/25 09:17:26;;;;;;;24.50;21.47;;;10.60;99.90;;;;;;5012227;28;20444;-56
2023/10/25 09:19:52;;;;;;;28.03;23.43;;;10.60;99.90;;;;;;5011470;28;20491;-56
2023/10/25 09:22:26;;;;;;;29.97;20.70;;;10.60;99.90;;;;;;5011350;28;20471;-59
2023/10/25 09:24:54;;;;;;;28.50;21.63;;;10.60;99.90;;;;;;5010869;28;20539;-56
2023/10/25 09:27:21;;;;;;;26.57;21.70;;;10.60;99.90;;;;;;5009774;28;20467;-56
2023/10/25 09:29:49;;;;;;;29.57;22.23;;;10.50;99.90;;;;;;5010665;28;21039;-55
2023/10/25 09:32:15;;;;;;;28.63;21.87;;;10.50;99.90;;;;;;5018629;28;20463;-56
2023/10/25 09:34:42;;;;;;;33.00;21.50;;;10.60;99.90;;;;;;5003746;28;20509;-56
2023/10/25 09:37:09;;;;;;;24.97;21.40;;;10.60;99.90;;;;;;5010009;28;20463;-56
2023/10/25 09:39:37;;;;;;;25.97;21.80;;;10.60;99.90;;;;;;5015711;28;20492;-56
2023/10/25 09:42:06;;;;;;;28.40;20.53;;;10.60;99.90;;;;;;5011166;28;20439;-56
2023/10/25 09:44:38;;;;;;;23.93;20.07;;;10.70;99.90;;;;;;5012216;28;20448;-55
2023/10/25 09:47:10;;;;;;;25.07;20.63;;;10.70;99.90;;;;;;5012014;28;20937;-56
2023/10/25 09:49:41;;;;;;;26.23;22.00;;;10.80;99.90;;;;;;5010308;28;20864;-56
2023/10/25 09:52:11;;;;;;;31.57;21.53;;;10.70;99.90;;;;;;5011565;28;20526;-56
2023/10/25 09:54:45;;;;;;;21.90;19.57;;;10.70;99.90;;;;;;5008970;28;20491;-55
2023/10/25 09:57:14;;;;;;;25.30;21.90;;;10.80;99.90;;;;;;5026670;28;20438;-56
2023/10/25 09:59:41;;;;;;;25.03;21.40;;;10.80;99.90;;;;;;5051150;22;20490;-55
2023/10/25 10:02:09;;;;;;;26.60;20.80;;;10.80;99.90;;;;;;5054976;28;20429;-55
2023/10/25 10:04:48;;;;;;;27.47;22.50;;;10.80;99.90;;;;;;5053521;28;20454;-56
2023/10/25 10:07:28;;;;;;;27.83;20.40;;;10.80;99.90;;;;;;5055008;28;20441;-55
2023/10/25 10:10:05;;;;;;;27.53;21.37;;;10.90;99.90;;;;;;5049594;28;20484;-55
2023/10/25 10:12:31;;;;;;;23.23;20.80;;;10.80;99.90;;;;;;5059275;28;20511;-55
2023/10/25 10:14:58;;;;;;;26.60;20.00;;;10.80;99.90;;;;;;5054667;28;20487;-55
2023/10/25 10:17:26;;;;;;;22.80;20.27;;;10.90;99.90;;;;;;5055073;28;20442;-56
2023/10/25 10:19:54;;;;;;;25.30;21.20;;;10.90;99.90;;;;;;5053139;28;20564;-54
2023/10/25 10:22:20;;;;;;;29.10;21.47;;;10.90;99.90;;;;;;5053753;28;21006;-56
2023/10/25 10:24:49;;;;;;;29.53;21.30;;;11.00;99.90;;;;;;5053118;28;20886;-56
2023/10/25 10:27:19;;;;;;;23.23;20.77;;;11.00;99.90;;;;;;5058741;28;20461;-56
2023/10/25 10:29:45;;;;;;;34.20;21.20;;;11.10;99.90;;;;;;5053461;28;20477;-55
2023/10/25 10:32:13;;;;;;;20.20;18.13;;;11.10;99.90;;;;;;5054902;28;20437;-56
2023/10/25 10:34:42;;;;;;;23.13;18.23;;;11.10;99.90;;;;;;5054094;28;20441;-55
2023/10/25 10:37:11;;;;;;;20.30;17.03;;;11.10;99.90;;;;;;5053115;28;20466;-56
2023/10/25 10:39:38;;;;;;;17.83;14.90;;;11.20;99.90;;;;;;5051115;28;20500;-56
2023/10/25 10:42:06;;;;;;;21.60;17.00;;;11.20;99.90;;;;;;5060285;28;20536;-55
2023/10/25 10:44:38;;;;;;;17.33;15.50;;;11.30;99.90;;;;;;5074071;28;20441;-56
2023/10/25 10:47:09;;;;;;;16.87;15.03;;;11.20;99.90;;;;;;5057130;28;20462;-55
2023/10/25 10:49:37;;;;;;;20.87;15.90;;;11.20;99.90;;;;;;5045911;28;20570;-56
2023/10/25 10:52:06;;;;;;;20.30;15.97;;;11.30;99.90;;;;;;5052144;28;20466;-55
2023/10/25 10:54:33;;;;;;;18.03;16.10;;;11.30;99.90;;;;;;5052498;28;20438;-55
2023/10/25 10:57:00;;;;;;;17.67;15.90;;;11.30;99.90;;;;;;5054356;28;20438;-55
2023/10/25 10:59:28;;;;;;;23.13;14.53;;;11.40;99.90;;;;;;5053504;28;20493;-56
2023/10/25 11:01:56;;;;;;;16.57;14.70;;;11.40;99.90;;;;;;5054177;28;20855;-55
2023/10/25 11:04:23;;;;;;;16.30;14.60;;;11.40;99.90;;;;;;5052914;28;20511;-56
2023/10/25 11:06:50;;;;;;;18.07;15.47;;;11.40;99.90;;;;;;5051563;28;20462;-56
2023/10/25 11:09:16;;;;;;;17.13;14.67;;;11.40;99.90;;;;;;5051866;28;21073;-55
2023/10/25 11:11:43;;;;;;;19.03;14.70;;;11.40;99.90;;;;;;5064588;28;20862;-55
2023/10/25 11:14:10;;;;;;;14.33;12.80;;;11.40;99.90;;;;;;5056002;28;20470;-57
2023/10/25 11:16:36;;;;;;;15.03;13.20;;;11.50;99.90;;;;;;5053666;28;20446;-56
2023/10/25 11:19:08;;;;;;;15.87;13.87;;;11.50;99.90;;;;;;5053733;28;20527;-55
2023/10/25 11:21:35;;;;;;;13.17;11.73;;;11.50;27.90;;;;;;5052783;28;20457;-55
2023/10/25 11:24:06;;;;;;;14.77;12.33;;;11.50;24.30;;;;;;5044782;28;20495;-56
2023/10/25 11:26:37;;;;;;;13.83;11.60;;;11.50;24.70;;;;;;5062566;28;20456;-56
2023/10/25 11:29:05;;;;;;;18.20;12.60;;;11.60;26.90;;;;;;5073650;28;20438;-55
2023/10/25 11:31:33;;;;;;;14.80;13.20;;;11.60;26.30;;;;;;5073527;28;20503;-54
2023/10/25 11:34:01;;;;;;;17.80;14.83;;;11.60;28.40;;;;;;5073640;28;20490;-55
2023/10/25 11:36:30;;;;;;;16.50;13.07;;;11.60;25.20;;;;;;5073153;28;20443;-56
2023/10/25 11:39:07;;;;;;;15.40;12.60;;;11.60;21.10;;;;;;5048846;28;20571;-56
2023/10/25 11:41:34;;;;;;;20.50;15.53;;;11.70;26.20;;;;;;5054688;28;20541;-56
2023/10/25 11:44:01;;;;;;;15.33;12.50;;;11.70;22.80;;;;;;5059165;28;20736;-54
2023/10/25 11:46:35;;;;;;;14.60;11.30;;;11.80;77.80;;;;;;5053238;28;20437;-56
2023/10/25 11:49:02;;;;;;;21.20;10.60;;;11.90;24.60;;;;;;5053138;28;20430;-55
2023/10/25 11:51:30;;;;;;;15.43;9.97;;;11.90;39.80;;;;;;5047891;28;20504;-56
2023/10/25 11:53:56;;;;;;;11.80;9.80;;;12.00;46.80;;;;;;5051363;28;20832;-56
2023/10/25 11:56:24;;;;;;;15.13;9.73;;;11.90;60.50;;;;;;5052913;28;20438;-56
2023/10/25 11:58:50;;;;;;;15.77;9.93;;;12.10;41.80;;;;;;5053105;28;20551;-56
2023/10/25 12:01:17;;;;;;;12.67;9.37;;;12.20;39.70;;;;;;5052857;28;20470;-55
2023/10/25 12:03:44;;;;;;;11.17;9.73;;;12.30;43.70;;;;;;5052801;28;20499;-55
2023/10/25 12:06:11;;;;;;;17.43;9.33;;;12.40;39.90;;;;;;5051528;28;20470;-55
2023/10/25 12:08:39;;;;;;;22.20;9.47;;;12.60;40.90;;;;;;5051530;28;20527;-55
2023/10/25 12:11:06;;;;;;;17.80;10.23;;;12.60;44.20;;;;;;5072350;28;20514;-55
2023/10/25 12:13:34;;;;;;;13.73;10.47;;;12.70;46.30;;;;;;5052596;28;20461;-56
2023/10/25 12:16:01;;;;;;;9.70;8.70;;;12.70;61.30;;;;;;5054007;28;20468;-55
2023/10/25 12:18:28;;;;;;;11.67;8.57;;;12.40;86.70;;;;;;5059196;28;20468;-56
2023/10/25 12:20:55;;;;;;;8.83;7.93;;;12.30;90.20;;;;;;5050071;28;20496;-56
2023/10/25 12:23:21;;;;;;;13.23;7.80;;;12.30;85.60;;;;;;5049704;28;20470;-56
2023/10/25 12:25:49;;;;;;;14.07;7.50;;;12.30;80.50;;;;;;5067904;28;20492;-56
2023/10/25 12:28:17;;;;;;;12.37;8.10;;;12.40;77.40;;;;;;5049153;28;20499;-55
2023/10/25 12:30:43;;;;;;;12.73;9.80;;;12.40;79.10;;;;;;5071623;28;20464;-55
2023/10/25 12:33:10;;;;;;;10.37;7.53;;;12.40;87.60;;;;;;5066828;28;20536;-55